createdAt,value
2023-04-15T00:02:19.560Z,10.90
2023-04-15T00:04:47.871Z,11.65
2023-04-15T00:07:16.238Z,9.68
2023-04-15T00:09:44.676Z,7.30
2023-04-15T00:12:13.085Z,7.68
2023-04-15T00:14:40.905Z,8.45
2023-04-15T00:17:10.060Z,10.93
2023-04-15T00:19:38.294Z,10.35
2023-04-15T00:22:06.211Z,8.68
2023-04-15T00:24:33.971Z,9.77
2023-04-15T00:27:01.768Z,10.40
2023-04-15T00:29:29.699Z,8.52
2023-04-15T00:31:57.964Z,9.85
2023-04-15T00:34:27.929Z,7.80
2023-04-15T00:36:55.749Z,7.75
2023-04-15T00:39:23.690Z,8.98
2023-04-15T00:41:51.461Z,12.18
2023-04-15T00:44:20.019Z,10.85
2023-04-15T00:46:50.335Z,12.35
2023-04-15T00:49:19.289Z,8.82
2023-04-15T00:51:48.457Z,10.25
2023-04-15T00:54:16.368Z,7.75
2023-04-15T00:56:44.513Z,8.05
2023-04-15T00:59:12.506Z,8.38
2023-04-15T01:01:41.736Z,13.50
2023-04-15T01:04:11.054Z,11.60
2023-04-15T01:06:39.125Z,11.80
2023-04-15T01:09:08.212Z,9.90
2023-04-15T01:11:36.515Z,10.93
2023-04-15T01:14:04.772Z,13.05
2023-04-15T01:16:32.834Z,11.20
2023-04-15T01:19:01.267Z,9.63
2023-04-15T01:21:29.901Z,12.50
2023-04-15T01:23:58.491Z,10.75
2023-04-15T01:26:28.187Z,13.20
2023-04-15T01:28:56.401Z,10.88
2023-04-15T01:31:25.138Z,11.43
2023-04-15T01:33:53.000Z,12.80
2023-04-15T01:36:20.993Z,12.73
2023-04-15T01:38:49.122Z,11.13
2023-04-15T01:41:17.191Z,12.52
2023-04-15T01:43:46.986Z,13.30
2023-04-15T01:46:14.797Z,14.80
2023-04-15T01:48:42.632Z,11.85
2023-04-15T01:51:10.407Z,13.55
2023-04-15T01:53:38.315Z,14.32
2023-04-15T01:56:07.254Z,11.95
2023-04-15T01:58:35.037Z,10.95
2023-04-15T02:01:04.637Z,11.80
2023-04-15T02:03:33.608Z,13.45
2023-04-15T02:06:01.346Z,13.30
2023-04-15T02:08:29.799Z,11.38
2023-04-15T02:10:58.064Z,10.48
2023-04-15T02:13:26.387Z,14.05
2023-04-15T02:15:56.365Z,12.25
2023-04-15T02:18:25.574Z,10.88
2023-04-15T02:20:53.613Z,12.48
2023-04-15T02:23:21.321Z,15.15
2023-04-15T02:25:53.822Z,14.43
2023-04-15T02:28:22.604Z,10.55
2023-04-15T02:30:52.752Z,10.73
2023-04-15T02:33:21.032Z,8.52
2023-04-15T02:35:50.187Z,9.77
2023-04-15T02:38:18.011Z,13.38
2023-04-15T02:40:46.172Z,12.15
2023-04-15T02:43:13.967Z,10.07
2023-04-15T02:45:43.472Z,13.85
2023-04-15T02:48:11.514Z,13.80
2023-04-15T02:50:40.716Z,12.82
2023-04-15T02:53:13.408Z,11.68
2023-04-15T02:55:41.214Z,13.55
2023-04-15T02:58:08.918Z,11.60
2023-04-15T03:00:36.707Z,12.77
2023-04-15T03:03:06.142Z,11.15
2023-04-15T03:05:34.320Z,11.07
2023-04-15T03:08:04.772Z,13.52
2023-04-15T03:10:33.922Z,14.90
2023-04-15T03:13:02.865Z,12.02
2023-04-15T03:15:30.749Z,11.30
2023-04-15T03:17:58.586Z,14.30
2023-04-15T03:20:26.472Z,17.83
2023-04-15T03:22:54.399Z,12.80
2023-04-15T03:25:24.269Z,13.57
2023-04-15T03:27:53.597Z,13.95
2023-04-15T03:30:21.473Z,14.23
2023-04-15T03:32:49.313Z,14.85
2023-04-15T03:35:17.335Z,14.18
2023-04-15T03:37:45.144Z,13.23
2023-04-15T03:40:13.799Z,15.07
2023-04-15T03:42:41.631Z,15.35
2023-04-15T03:45:11.906Z,13.40
2023-04-15T03:47:39.663Z,11.98
2023-04-15T03:50:08.541Z,14.93
2023-04-15T03:52:36.508Z,12.18
2023-04-15T03:55:04.356Z,13.32
2023-04-15T03:57:32.241Z,15.05
2023-04-15T03:59:59.949Z,14.65
2023-04-15T04:02:29.169Z,14.60
2023-04-15T04:04:57.037Z,15.45
2023-04-15T04:07:25.439Z,14.38
2023-04-15T04:09:53.323Z,13.20
2023-04-15T04:12:21.064Z,15.85
2023-04-15T04:14:48.757Z,15.00
2023-04-15T04:17:16.521Z,17.75
2023-04-15T04:19:45.817Z,13.80
2023-04-15T04:22:13.566Z,15.65
2023-04-15T04:24:41.364Z,15.90
2023-04-15T04:27:09.136Z,16.80
2023-04-15T04:29:36.884Z,16.73
2023-04-15T04:32:04.724Z,15.40
2023-04-15T04:34:32.512Z,15.38
2023-04-15T04:37:01.687Z,16.75
2023-04-15T04:39:29.409Z,13.40
2023-04-15T04:41:57.508Z,13.77
2023-04-15T04:44:25.371Z,16.10
2023-04-15T04:46:53.121Z,19.02
2023-04-15T04:49:20.944Z,14.77
2023-04-15T04:51:48.892Z,17.20
2023-04-15T04:54:18.102Z,15.48
2023-04-15T04:56:46.358Z,16.58
2023-04-15T04:59:14.116Z,17.20
2023-04-15T05:01:42.077Z,17.63
2023-04-15T05:04:10.024Z,15.20
2023-04-15T05:06:37.890Z,16.92
2023-04-15T05:09:05.635Z,18.00
2023-04-15T05:11:34.721Z,15.65
2023-04-15T05:14:02.558Z,15.90
2023-04-15T05:16:30.382Z,15.50
2023-04-15T05:18:58.118Z,18.30
2023-04-15T05:21:25.918Z,17.15
2023-04-15T05:23:53.702Z,16.00
2023-04-15T05:26:22.109Z,15.50
2023-04-15T05:28:51.215Z,18.58
2023-04-15T05:31:19.016Z,18.00
2023-04-15T05:33:46.763Z,20.35
2023-04-15T05:36:14.497Z,17.30
2023-04-15T05:38:42.435Z,18.05
2023-04-15T05:41:10.273Z,17.75
2023-04-15T05:43:38.033Z,19.55
2023-04-15T05:46:08.551Z,15.93
2023-04-15T05:48:36.568Z,18.40
2023-04-15T05:51:04.430Z,13.25
2023-04-15T05:53:32.119Z,16.98
2023-04-15T05:56:00.037Z,18.67
2023-04-15T05:58:27.937Z,18.15
2023-04-15T06:00:55.788Z,18.08
2023-04-15T06:03:25.524Z,18.70
2023-04-15T06:05:53.402Z,15.52
2023-04-15T06:08:21.503Z,17.80
2023-04-15T06:10:49.330Z,15.35
2023-04-15T06:13:17.207Z,17.50
2023-04-15T06:15:44.998Z,17.88
2023-04-15T06:18:13.020Z,20.85
2023-04-15T06:20:42.179Z,15.27
2023-04-15T06:23:09.913Z,17.55
2023-04-15T06:25:37.695Z,15.98
2023-04-15T06:28:05.988Z,17.10
2023-04-15T06:30:33.773Z,16.70
2023-04-15T06:33:03.341Z,18.55
2023-04-15T06:35:31.141Z,18.63
2023-04-15T06:38:00.264Z,17.13
2023-04-15T06:40:28.230Z,17.13
2023-04-15T06:42:56.454Z,15.85
2023-04-15T06:45:24.244Z,17.92
2023-04-15T06:47:52.034Z,17.95
2023-04-15T06:50:19.837Z,19.98
2023-04-15T06:52:47.643Z,18.95
2023-04-15T06:55:16.784Z,22.20
2023-04-15T06:57:44.482Z,22.23
2023-04-15T07:00:13.557Z,26.60
2023-04-15T07:02:41.562Z,30.45
2023-04-15T07:05:09.997Z,30.83
2023-04-15T07:07:38.512Z,34.45
2023-04-15T07:10:07.415Z,34.10
2023-04-15T07:12:36.849Z,34.33
2023-04-15T07:15:05.473Z,33.65
2023-04-15T07:17:33.252Z,34.17
2023-04-15T07:20:01.022Z,42.33
2023-04-15T07:22:28.734Z,43.08
2023-04-15T07:24:56.660Z,44.15
2023-04-15T07:27:24.368Z,40.38
2023-04-15T07:29:53.533Z,42.50
2023-04-15T07:32:21.346Z,35.20
2023-04-15T07:34:49.080Z,35.08
2023-04-15T07:37:17.494Z,35.55
2023-04-15T07:39:45.209Z,29.42
2023-04-15T07:42:13.068Z,28.08
2023-04-15T07:44:41.123Z,32.10
2023-04-15T07:47:10.698Z,26.95
2023-04-15T07:49:38.546Z,25.45
2023-04-15T07:52:06.634Z,21.38
2023-04-15T07:54:34.358Z,21.15
2023-04-15T07:57:03.098Z,20.48
2023-04-15T07:59:33.355Z,20.92
2023-04-15T08:02:01.324Z,19.60
2023-04-15T08:04:31.204Z,21.00
2023-04-15T08:06:59.106Z,20.02
2023-04-15T08:09:27.182Z,18.65
2023-04-15T08:11:55.140Z,20.65
2023-04-15T08:14:22.984Z,16.58
2023-04-15T08:16:50.818Z,17.42
2023-04-15T08:19:18.601Z,16.10
2023-04-15T08:21:47.878Z,14.52
2023-04-15T08:24:15.814Z,13.38
2023-04-15T08:26:43.583Z,14.73
2023-04-15T08:29:11.353Z,14.63
2023-04-15T08:31:39.111Z,16.60
2023-04-15T08:34:07.005Z,16.33
2023-04-15T08:36:34.769Z,14.60
2023-04-15T08:39:04.970Z,15.98
2023-04-15T08:41:40.841Z,15.13
2023-04-15T08:44:08.963Z,15.18
2023-04-15T08:46:36.984Z,14.65
2023-04-15T08:49:06.045Z,15.38
2023-04-15T08:51:34.066Z,15.15
2023-04-15T08:54:03.568Z,16.80
2023-04-15T08:56:33.636Z,13.32
2023-04-15T08:59:01.949Z,14.13
2023-04-15T09:01:30.075Z,16.58
2023-04-15T09:04:00.080Z,13.60
2023-04-15T09:06:28.118Z,11.15
2023-04-15T09:08:55.870Z,11.70
2023-04-15T09:11:25.012Z,11.27
2023-04-15T09:13:52.762Z,11.10
2023-04-15T09:16:20.720Z,11.70
2023-04-15T09:18:48.536Z,10.48
2023-04-15T09:21:18.098Z,10.68
2023-04-15T09:23:56.691Z,12.13
2023-04-15T09:26:34.608Z,11.75
2023-04-15T09:29:07.455Z,11.98
2023-04-15T09:31:35.520Z,11.20
2023-04-15T09:34:03.947Z,10.30
2023-04-15T09:36:42.608Z,9.85
2023-04-15T09:39:10.464Z,9.48
2023-04-15T09:41:40.338Z,10.05
2023-04-15T09:44:08.341Z,10.07
2023-04-15T09:46:43.321Z,9.25
2023-04-15T09:49:12.319Z,9.70
2023-04-15T09:51:40.175Z,7.88
2023-04-15T09:54:07.922Z,8.13
2023-04-15T09:56:37.837Z,11.23
2023-04-15T09:59:07.595Z,8.80
2023-04-15T10:01:36.143Z,8.20
2023-04-15T10:04:05.979Z,9.60
2023-04-15T10:06:35.513Z,12.13
2023-04-15T10:09:03.519Z,10.70
2023-04-15T10:11:32.823Z,6.88
2023-04-15T10:14:01.954Z,10.45
2023-04-15T10:16:33.895Z,8.43
2023-04-15T10:19:04.481Z,9.85
2023-04-15T10:21:32.308Z,8.23
2023-04-15T10:24:01.843Z,7.28
2023-04-15T10:26:29.969Z,8.88
2023-04-15T10:28:59.944Z,8.25
2023-04-15T10:31:28.093Z,8.73
2023-04-15T10:33:58.338Z,7.35
2023-04-15T10:36:26.678Z,6.25
2023-04-15T10:38:54.453Z,6.90
2023-04-15T10:41:24.488Z,7.95
2023-04-15T10:43:53.804Z,8.40
2023-04-15T10:46:26.807Z,7.30
2023-04-15T10:48:55.227Z,7.32
2023-04-15T10:51:32.090Z,7.00
2023-04-15T10:54:00.927Z,8.23
2023-04-15T10:56:30.212Z,6.80
2023-04-15T10:59:00.788Z,7.68
2023-04-15T11:01:53.600Z,8.88
2023-04-15T11:04:52.795Z,7.13
2023-04-15T11:07:39.379Z,7.43
2023-04-15T11:10:52.810Z,6.60
2023-04-15T11:13:28.238Z,6.45
2023-04-15T11:16:01.625Z,8.30
2023-04-15T11:18:33.951Z,6.22
2023-04-15T11:21:04.555Z,6.00
2023-04-15T11:23:35.782Z,7.38
2023-04-15T11:26:08.872Z,7.53
2023-04-15T11:28:38.776Z,7.78
2023-04-15T11:31:11.255Z,6.57
2023-04-15T11:33:40.473Z,6.50
2023-04-15T11:36:09.394Z,6.07
2023-04-15T11:38:38.903Z,9.30
2023-04-15T11:41:06.781Z,7.13
2023-04-15T11:43:35.529Z,7.63
2023-04-15T11:46:04.562Z,7.72
2023-04-15T11:48:34.542Z,6.97
2023-04-15T11:51:03.564Z,7.60
2023-04-15T11:53:43.537Z,7.15
2023-04-15T11:56:12.678Z,8.13
2023-04-15T11:58:40.609Z,8.75
2023-04-15T12:01:08.486Z,9.88
2023-04-15T12:03:41.021Z,6.65
2023-04-15T12:06:14.162Z,6.18
2023-04-15T12:09:00.756Z,6.10
2023-04-15T12:11:37.530Z,5.70
2023-04-15T12:14:09.424Z,6.75
2023-04-15T12:16:48.008Z,7.15
2023-04-15T12:19:19.160Z,6.65
2023-04-15T12:21:49.090Z,6.15
2023-04-15T12:24:22.171Z,6.50
2023-04-15T12:26:52.171Z,7.53
2023-04-15T12:29:21.090Z,7.13
2023-04-15T12:31:53.174Z,6.20
2023-04-15T12:34:29.402Z,6.40
2023-04-15T12:36:58.838Z,6.07
2023-04-15T12:39:30.613Z,8.63
2023-04-15T12:41:58.833Z,4.82
2023-04-15T12:44:27.890Z,5.97
2023-04-15T12:46:56.559Z,5.93
2023-04-15T12:49:25.453Z,4.93
2023-04-15T12:51:55.022Z,5.68
2023-04-15T12:54:22.805Z,4.22
2023-04-15T12:56:52.515Z,5.35
2023-04-15T12:59:20.389Z,4.82
2023-04-15T13:01:49.270Z,5.88
2023-04-15T13:04:17.902Z,5.13
2023-04-15T13:06:45.953Z,3.95
2023-04-15T13:09:13.884Z,4.90
2023-04-15T13:11:41.948Z,3.92
2023-04-15T13:14:13.045Z,5.20
2023-04-15T13:16:41.490Z,4.25
2023-04-15T13:19:09.410Z,4.20
2023-04-15T13:21:37.250Z,4.88
2023-04-15T13:24:07.209Z,5.70
2023-04-15T13:26:35.987Z,4.78
2023-04-15T13:29:04.977Z,5.20
2023-04-15T13:31:34.220Z,6.03
2023-04-15T13:34:02.002Z,5.60
2023-04-15T13:36:29.860Z,5.22
2023-04-15T13:38:58.416Z,6.90
2023-04-15T13:41:26.254Z,6.93
2023-04-15T13:43:53.993Z,8.50
2023-04-15T13:46:21.997Z,9.45
2023-04-15T13:48:51.464Z,7.72
2023-04-15T13:51:19.176Z,7.25
2023-04-15T13:53:46.940Z,8.98
2023-04-15T13:56:14.687Z,9.50
2023-04-15T13:58:42.522Z,7.70
2023-04-15T14:01:10.375Z,9.35
2023-04-15T14:03:38.441Z,10.77
2023-04-15T14:06:08.027Z,10.73
2023-04-15T14:08:35.985Z,10.20
2023-04-15T14:11:03.849Z,9.27
2023-04-15T14:13:31.876Z,11.43
2023-04-15T14:15:59.606Z,8.82
2023-04-15T14:18:27.500Z,11.65
2023-04-15T14:20:55.616Z,9.68
2023-04-15T14:23:24.893Z,11.80
2023-04-15T14:25:52.760Z,11.82
2023-04-15T14:28:20.590Z,10.02
2023-04-15T14:30:48.366Z,10.48
2023-04-15T14:33:16.306Z,12.27
2023-04-15T14:35:44.337Z,12.90
2023-04-15T14:38:12.258Z,12.38
2023-04-15T14:40:42.733Z,15.52
2023-04-15T14:43:10.676Z,13.10
2023-04-15T14:45:41.881Z,13.32
2023-04-15T14:48:12.818Z,12.27
2023-04-15T14:50:41.356Z,13.60
2023-04-15T14:53:09.213Z,13.63
2023-04-15T14:55:36.965Z,14.13
2023-04-15T14:58:08.098Z,14.30
2023-04-15T15:00:39.212Z,14.27
2023-04-15T15:03:12.490Z,13.80
2023-04-15T15:05:40.781Z,15.70
2023-04-15T15:08:09.115Z,12.95
2023-04-15T15:10:49.470Z,13.30
2023-04-15T15:13:19.982Z,14.68
2023-04-15T15:15:49.408Z,12.77
2023-04-15T15:18:19.319Z,13.70
2023-04-15T15:20:47.506Z,14.00
2023-04-15T15:23:15.352Z,13.85
2023-04-15T15:25:43.193Z,12.98
2023-04-15T15:28:11.341Z,14.45
2023-04-15T15:30:40.660Z,13.07
2023-04-15T15:33:09.397Z,12.07
2023-04-15T15:35:37.252Z,13.77
2023-04-15T15:38:05.433Z,12.93
2023-04-15T15:40:33.232Z,13.25
2023-04-15T15:43:01.041Z,13.93
2023-04-15T15:45:28.923Z,13.65
2023-04-15T15:47:58.774Z,13.15
2023-04-15T15:50:26.794Z,11.10
2023-04-15T15:52:55.151Z,11.73
2023-04-15T15:55:23.395Z,13.68
2023-04-15T15:57:51.803Z,10.13
2023-04-15T16:00:19.678Z,12.88
2023-04-15T16:05:19.854Z,13.68
2023-04-15T16:07:47.587Z,13.10
2023-04-15T16:10:16.068Z,16.75
2023-04-15T16:12:43.947Z,13.00
2023-04-15T16:15:13.359Z,14.73
2023-04-15T16:17:41.266Z,14.50
2023-04-15T16:20:09.969Z,15.35
2023-04-15T16:22:39.099Z,14.68
2023-04-15T16:25:07.721Z,14.95
2023-04-15T16:27:43.442Z,16.27
2023-04-15T16:30:18.483Z,13.75
2023-04-15T16:32:46.802Z,15.00
2023-04-15T16:35:16.241Z,18.75
2023-04-15T16:37:45.325Z,17.73
2023-04-15T16:40:13.622Z,24.83
2023-04-15T16:42:43.405Z,17.98
2023-04-15T16:45:12.205Z,17.40
2023-04-15T16:47:40.457Z,14.45
2023-04-15T16:50:09.129Z,15.50
2023-04-15T16:52:37.473Z,19.38
2023-04-15T16:55:07.394Z,19.85
2023-04-15T16:57:50.804Z,21.10
2023-04-15T17:00:23.071Z,25.15
2023-04-15T17:02:51.092Z,20.50
2023-04-15T17:05:19.208Z,20.52
2023-04-15T17:07:46.914Z,21.15
2023-04-15T17:10:17.348Z,24.50
2023-04-15T17:12:45.322Z,25.77
2023-04-15T17:15:13.142Z,21.73
2023-04-15T17:17:41.109Z,24.60
2023-04-15T17:20:09.378Z,20.85
2023-04-15T17:22:37.298Z,27.75
2023-04-15T17:25:05.883Z,23.98
2023-04-15T17:27:35.002Z,26.17
2023-04-15T17:30:02.956Z,25.38
2023-04-15T17:32:34.199Z,27.15
2023-04-15T17:35:02.786Z,24.17
2023-04-15T17:37:30.674Z,27.83
2023-04-15T17:39:58.436Z,23.27
2023-04-15T17:42:26.361Z,26.27
2023-04-15T17:44:55.451Z,27.73
2023-04-15T17:47:23.252Z,31.50
2023-04-15T17:49:51.147Z,26.63
2023-04-15T17:52:18.876Z,27.65
2023-04-15T17:54:46.891Z,32.67
2023-04-15T17:57:14.746Z,26.90
2023-04-15T17:59:44.090Z,29.27
2023-04-15T18:02:13.652Z,30.15
2023-04-15T18:04:41.804Z,28.13
2023-04-15T18:07:09.924Z,31.48
2023-04-15T18:09:37.688Z,30.05
2023-04-15T18:12:07.589Z,32.13
2023-04-15T18:14:35.535Z,31.80
2023-04-15T18:17:03.603Z,34.50
2023-04-15T18:19:32.970Z,34.03
2023-04-15T18:22:00.963Z,34.83
2023-04-15T18:24:28.809Z,35.38
2023-04-15T18:26:57.109Z,32.85
2023-04-15T18:29:25.258Z,41.72
2023-04-15T18:31:53.268Z,34.30
2023-04-15T18:34:21.177Z,36.83
2023-04-15T18:36:50.351Z,37.72
2023-04-15T18:39:18.141Z,42.97
2023-04-15T18:41:45.909Z,39.20
2023-04-15T18:44:13.626Z,34.78
2023-04-15T18:46:41.490Z,39.75
2023-04-15T18:49:09.210Z,38.40
2023-04-15T18:51:37.126Z,43.15
2023-04-15T18:54:06.506Z,41.58
2023-04-15T18:56:34.281Z,36.50
2023-04-15T18:59:09.388Z,40.80
2023-04-15T19:01:49.830Z,37.97
2023-04-15T19:04:17.650Z,38.97
2023-04-15T19:06:45.372Z,41.47
2023-04-15T19:09:15.080Z,39.55
2023-04-15T19:11:43.617Z,38.35
2023-04-15T19:14:12.006Z,36.90
2023-04-15T19:16:39.865Z,40.58
2023-04-15T19:19:07.800Z,40.15
2023-04-15T19:21:35.849Z,38.85
2023-04-15T19:24:03.675Z,39.28
2023-04-15T19:26:32.833Z,42.17
2023-04-15T19:29:00.766Z,45.47
2023-04-15T19:31:28.567Z,40.97
2023-04-15T19:33:56.778Z,42.15
2023-04-15T19:36:24.533Z,47.03
2023-04-15T19:38:52.335Z,48.88
2023-04-15T19:41:20.117Z,43.63
2023-04-15T19:43:49.196Z,49.33
2023-04-15T19:46:16.998Z,45.08
2023-04-15T19:48:45.006Z,46.72
2023-04-15T19:51:12.960Z,47.92
2023-04-15T19:53:41.317Z,51.28
2023-04-15T19:56:09.068Z,53.85
2023-04-15T19:58:37.378Z,42.97
2023-04-15T20:01:06.596Z,54.65
2023-04-15T20:03:34.526Z,51.83
2023-04-15T20:06:02.354Z,50.65
2023-04-15T20:08:30.068Z,47.40
2023-04-15T20:10:58.182Z,48.33
2023-04-15T20:13:25.989Z,53.50
2023-04-15T20:15:53.766Z,56.67
2023-04-15T20:18:22.906Z,59.00
2023-04-15T20:20:50.720Z,52.65
2023-04-15T20:23:18.626Z,55.35
2023-04-15T20:25:46.356Z,59.58
2023-04-15T20:28:14.130Z,55.03
2023-04-15T20:30:41.927Z,56.35
2023-04-15T20:33:09.664Z,58.17
2023-04-15T20:35:38.949Z,58.78
2023-04-15T20:38:06.687Z,61.03
2023-04-15T20:40:34.618Z,54.22
2023-04-15T20:43:02.392Z,59.97
2023-04-15T20:45:30.092Z,52.20
2023-04-15T20:47:58.019Z,61.28
2023-04-15T20:50:25.781Z,49.25
2023-04-15T20:52:54.877Z,56.63
2023-04-15T20:55:22.611Z,49.53
2023-04-15T20:57:50.427Z,51.78
2023-04-15T21:00:18.256Z,58.78
2023-04-15T21:02:46.157Z,61.85
2023-04-15T21:05:13.918Z,51.45
2023-04-15T21:07:42.068Z,59.35
2023-04-15T21:10:11.995Z,51.85
2023-04-15T21:12:41.032Z,48.63
2023-04-15T21:15:09.869Z,59.30
2023-04-15T21:17:37.748Z,65.03
2023-04-15T21:20:06.433Z,56.72
2023-04-15T21:22:34.264Z,57.10
2023-04-15T21:25:02.081Z,59.40
2023-04-15T21:27:31.175Z,59.03
2023-04-15T21:29:58.900Z,51.85
2023-04-15T21:32:26.669Z,56.08
2023-04-15T21:34:54.447Z,61.50
2023-04-15T21:37:22.188Z,62.35
2023-04-15T21:39:49.911Z,63.38
2023-04-15T21:42:17.787Z,60.17
2023-04-15T21:44:46.922Z,54.03
2023-04-15T21:47:14.757Z,53.45
2023-04-15T21:49:42.714Z,56.78
2023-04-15T21:52:10.974Z,58.40
2023-04-15T21:54:38.678Z,53.65
2023-04-15T21:57:06.399Z,55.15
2023-04-15T21:59:34.116Z,59.75
2023-04-15T22:02:03.340Z,60.08
2023-04-15T22:04:31.260Z,54.65
2023-04-15T22:07:01.622Z,53.22
2023-04-15T22:09:29.427Z,48.80
2023-04-15T22:11:57.589Z,51.72
2023-04-15T22:14:25.346Z,56.35
2023-04-15T22:16:53.056Z,54.28
2023-04-15T22:19:22.141Z,54.10
2023-04-15T22:21:50.838Z,59.03
2023-04-15T22:24:34.048Z,50.63
2023-04-15T22:27:06.285Z,51.85
2023-04-15T22:29:34.122Z,51.25
2023-04-15T22:32:01.952Z,54.65
2023-04-15T22:34:31.065Z,54.45
2023-04-15T22:36:58.798Z,52.95
2023-04-15T22:39:26.596Z,56.40
2023-04-15T22:41:54.336Z,51.47
2023-04-15T22:44:22.040Z,53.90
2023-04-15T22:46:51.606Z,51.42
2023-04-15T22:49:19.402Z,54.72
2023-04-15T22:51:48.562Z,56.40
2023-04-15T22:54:16.268Z,51.92
2023-04-15T22:56:44.005Z,52.95
2023-04-15T22:59:11.883Z,49.40
2023-04-15T23:01:39.722Z,53.85
2023-04-15T23:04:22.872Z,43.88
2023-04-15T23:06:52.965Z,46.25
2023-04-15T23:09:20.956Z,50.15
2023-04-15T23:11:48.852Z,49.83
2023-04-15T23:14:16.676Z,48.55
2023-04-15T23:16:45.490Z,51.53
2023-04-15T23:19:13.228Z,50.70
2023-04-15T23:21:40.926Z,52.20
2023-04-15T23:24:10.041Z,57.13
2023-04-15T23:26:37.893Z,50.30
2023-04-15T23:29:05.783Z,58.92
2023-04-15T23:31:33.555Z,54.47
2023-04-15T23:34:01.356Z,48.97
2023-04-15T23:36:29.152Z,53.63
2023-04-15T23:38:56.872Z,45.75
2023-04-15T23:41:26.057Z,47.40
2023-04-15T23:43:53.795Z,48.65
2023-04-15T23:46:21.527Z,52.33
2023-04-15T23:48:49.696Z,54.97
2023-04-15T23:51:17.940Z,49.97
2023-04-15T23:53:45.740Z,55.25
2023-04-15T23:56:13.460Z,50.35
2023-04-15T23:58:42.618Z,57.17
